createdAt,value
2022-11-16T00:00:20.890Z,99420
2022-11-16T00:02:20.723Z,99420
2022-11-16T00:04:20.807Z,99420
2022-11-16T00:06:21.864Z,99420
2022-11-16T00:08:20.239Z,99420
2022-11-16T00:10:20.177Z,99420
2022-11-16T00:12:19.928Z,99420
2022-11-16T00:14:21.563Z,99420
2022-11-16T00:16:19.527Z,99420
2022-11-16T00:18:19.408Z,99420
2022-11-16T00:20:19.380Z,99420
2022-11-16T00:22:20.085Z,99420
2022-11-16T00:24:20.681Z,99420
2022-11-16T00:26:19.863Z,99420
2022-11-16T00:28:20.033Z,99420
2022-11-16T00:30:19.327Z,99420
2022-11-16T00:32:18.773Z,99420
2022-11-16T00:34:19.216Z,99420
2022-11-16T00:36:18.416Z,99420
2022-11-16T00:38:18.383Z,99420
2022-11-16T00:40:18.105Z,99420
2022-11-16T00:42:17.899Z,99420
2022-11-16T00:44:17.822Z,99420
2022-11-16T00:46:17.784Z,99420
2022-11-16T00:48:17.496Z,99420
2022-11-16T00:50:17.445Z,99420
2022-11-16T00:52:17.492Z,99420
2022-11-16T00:54:17.080Z,99420
2022-11-16T00:56:17.784Z,99420
2022-11-16T00:58:18.693Z,99420
2022-11-16T01:00:18.743Z,99420
2022-11-16T01:02:16.482Z,99420
2022-11-16T01:04:16.825Z,99420
2022-11-16T01:06:16.406Z,99420
2022-11-16T01:08:16.004Z,99420
2022-11-16T01:10:18.748Z,99420
2022-11-16T01:12:16.782Z,99420
2022-11-16T01:14:17.137Z,99420
2022-11-16T01:16:16.232Z,99420
2022-11-16T01:18:15.260Z,99420
2022-11-16T01:20:17.464Z,99420
2022-11-16T01:22:15.268Z,99420
2022-11-16T01:24:14.857Z,99420
2022-11-16T01:26:16.077Z,99420
2022-11-16T01:28:21.791Z,99420
2022-11-16T01:30:21.626Z,99420
2022-11-16T01:32:15.051Z,99420
2022-11-16T01:34:14.151Z,99420
2022-11-16T01:36:15.031Z,99420
2022-11-16T01:38:14.324Z,99420
2022-11-16T01:40:15.248Z,99420
2022-11-16T01:42:17.713Z,99420
2022-11-16T01:44:47.342Z,99420
2022-11-16T01:46:13.368Z,99420
2022-11-16T01:48:15.467Z,99420
2022-11-16T01:50:18.139Z,99430
2022-11-16T01:52:16.582Z,99430
2022-11-16T01:54:23.483Z,99430
2022-11-16T01:56:21.560Z,99430
2022-11-16T01:58:21.484Z,99430
2022-11-16T02:00:16.462Z,99430
2022-11-16T02:02:12.161Z,99430
2022-11-16T02:04:13.944Z,99430
2022-11-16T02:06:37.735Z,99430
2022-11-16T02:08:28.902Z,99430
2022-11-16T02:10:21.108Z,99430
2022-11-16T02:12:31.344Z,99430
2022-11-16T02:14:25.372Z,99430
2022-11-16T02:16:19.141Z,99430
2022-11-16T02:18:24.315Z,99440
2022-11-16T02:20:33.427Z,99440
2022-11-16T02:22:25.192Z,99440
2022-11-16T02:24:29.623Z,99440
2022-11-16T02:26:24.944Z,99440
2022-11-16T02:28:26.472Z,99440
2022-11-16T02:30:13.500Z,99440
2022-11-16T02:32:15.472Z,99440
2022-11-16T02:34:12.649Z,99440
2022-11-16T02:36:13.659Z,99440
2022-11-16T02:38:12.541Z,99440
2022-11-16T02:40:12.424Z,99440
2022-11-16T02:42:14.554Z,99440
2022-11-16T02:44:13.196Z,99440
2022-11-16T02:46:16.991Z,99440
2022-11-16T02:48:14.354Z,99440
2022-11-16T02:50:13.311Z,99440
2022-11-16T02:52:12.035Z,99440
2022-11-16T02:54:11.981Z,99440
2022-11-16T02:56:12.191Z,99440
2022-11-16T02:58:12.461Z,99440
2022-11-16T03:00:12.674Z,99440
2022-11-16T03:02:27.313Z,99440
2022-11-16T03:04:16.608Z,99440
2022-11-16T03:06:13.531Z,99440
2022-11-16T03:08:15.834Z,99440
2022-11-16T03:10:09.240Z,99440
2022-11-16T03:12:11.605Z,99440
2022-11-16T03:14:13.595Z,99440
2022-11-16T03:16:12.721Z,99440
2022-11-16T03:18:07.941Z,99440
2022-11-16T03:20:11.701Z,99440
2022-11-16T03:22:12.006Z,99440
2022-11-16T03:24:08.465Z,99440
2022-11-16T03:26:10.984Z,99440
2022-11-16T03:28:12.374Z,99440
2022-11-16T03:30:08.900Z,99440
2022-11-16T03:32:14.327Z,99440
2022-11-16T03:34:12.071Z,99450
2022-11-16T03:36:10.802Z,99450
2022-11-16T03:38:07.116Z,99450
2022-11-16T03:40:07.890Z,99450
2022-11-16T03:42:10.358Z,99450
2022-11-16T03:44:05.095Z,99450
2022-11-16T03:46:04.765Z,99460
2022-11-16T03:48:06.685Z,99460
2022-11-16T03:50:04.659Z,99460
2022-11-16T03:52:05.121Z,99460
2022-11-16T03:54:04.958Z,99460
2022-11-16T03:56:04.351Z,99460
2022-11-16T03:58:03.777Z,99460
2022-11-16T04:00:13.750Z,99460
2022-11-16T04:02:02.980Z,99460
2022-11-16T04:04:02.973Z,99460
2022-11-16T04:06:02.790Z,99460
2022-11-16T04:08:02.747Z,99450
2022-11-16T04:10:04.126Z,99450
2022-11-16T04:12:02.852Z,99450
2022-11-16T04:14:06.460Z,99450
2022-11-16T04:16:01.998Z,99450
2022-11-16T04:18:01.940Z,99450
2022-11-16T04:20:01.791Z,99450
2022-11-16T04:22:07.138Z,99450
2022-11-16T04:24:01.353Z,99450
2022-11-16T04:26:01.253Z,99450
2022-11-16T04:28:02.250Z,99450
2022-11-16T04:30:03.471Z,99450
2022-11-16T04:32:01.492Z,99450
2022-11-16T04:34:01.380Z,99450
2022-11-16T04:36:00.282Z,99450
2022-11-16T04:38:03.234Z,99450
2022-11-16T04:40:00.471Z,99450
2022-11-16T04:42:01.374Z,99450
2022-11-16T04:44:00.027Z,99450
2022-11-16T04:46:05.605Z,99450
2022-11-16T04:48:02.591Z,99450
2022-11-16T04:49:59.613Z,99450
2022-11-16T04:51:59.648Z,99450
2022-11-16T04:53:58.864Z,99450
2022-11-16T04:56:00.895Z,99450
2022-11-16T04:57:59.531Z,99450
2022-11-16T04:59:58.612Z,99450
2022-11-16T05:01:58.273Z,99450
2022-11-16T05:03:58.816Z,99450
2022-11-16T05:05:58.016Z,99440
2022-11-16T05:08:00.891Z,99440
2022-11-16T05:09:59.322Z,99440
2022-11-16T05:11:57.540Z,99440
2022-11-16T05:13:57.380Z,99440
2022-11-16T05:15:57.002Z,99440
2022-11-16T05:17:58.169Z,99440
2022-11-16T05:19:57.613Z,99440
2022-11-16T05:21:56.795Z,99440
2022-11-16T05:23:57.750Z,99440
2022-11-16T05:25:56.316Z,99440
2022-11-16T05:27:57.229Z,99440
2022-11-16T05:29:56.501Z,99450
2022-11-16T05:31:56.978Z,99450
2022-11-16T05:33:55.953Z,99450
2022-11-16T05:35:55.303Z,99450
2022-11-16T05:37:56.009Z,99460
2022-11-16T05:39:57.131Z,99460
2022-11-16T05:41:56.443Z,99460
2022-11-16T05:43:55.006Z,99460
2022-11-16T05:45:54.971Z,99460
2022-11-16T05:47:54.256Z,99460
2022-11-16T05:49:54.816Z,99480
2022-11-16T05:51:54.885Z,99480
2022-11-16T05:53:55.712Z,99480
2022-11-16T05:55:53.820Z,99480
2022-11-16T05:57:53.449Z,99480
2022-11-16T05:59:53.198Z,99480
2022-11-16T06:01:53.108Z,99480
2022-11-16T06:03:53.258Z,99480
2022-11-16T06:05:54.844Z,99480
2022-11-16T06:07:52.553Z,99480
2022-11-16T06:09:53.833Z,99480
2022-11-16T06:11:52.318Z,99480
2022-11-16T06:13:52.576Z,99480
2022-11-16T06:15:52.130Z,99480
2022-11-16T06:17:51.813Z,99480
2022-11-16T06:19:51.581Z,99480
2022-11-16T06:21:52.548Z,99480
2022-11-16T06:23:51.587Z,99480
2022-11-16T06:25:53.115Z,99480
2022-11-16T06:27:51.041Z,99480
2022-11-16T06:29:50.918Z,99480
2022-11-16T06:31:50.776Z,99480
2022-11-16T06:33:54.501Z,99480
2022-11-16T06:35:52.685Z,99480
2022-11-16T06:37:50.181Z,99480
2022-11-16T06:39:50.355Z,99480
2022-11-16T06:41:50.027Z,99480
2022-11-16T06:43:51.179Z,99480
2022-11-16T06:45:50.095Z,99480
2022-11-16T06:47:50.109Z,99480
2022-11-16T06:49:52.963Z,99480
2022-11-16T06:51:49.264Z,99480
2022-11-16T06:53:49.338Z,99480
2022-11-16T06:55:49.111Z,99480
2022-11-16T06:57:49.420Z,99480
2022-11-16T06:59:48.546Z,99480
2022-11-16T07:01:48.640Z,99480
2022-11-16T07:03:48.368Z,99480
2022-11-16T07:05:49.858Z,99480
2022-11-16T07:07:52.258Z,99480
2022-11-16T07:09:48.553Z,99480
2022-11-16T07:11:48.813Z,99480
2022-11-16T07:13:47.718Z,99480
2022-11-16T07:15:47.682Z,99480
2022-11-16T07:17:47.540Z,99480
2022-11-16T07:19:47.423Z,99480
2022-11-16T07:21:49.601Z,99490
2022-11-16T07:23:51.196Z,99490
2022-11-16T07:25:47.399Z,99490
2022-11-16T07:27:47.142Z,99490
2022-11-16T07:30:01.708Z,99490
2022-11-16T07:32:01.610Z,99490
2022-11-16T07:34:01.408Z,99490
2022-11-16T07:35:46.517Z,99490
2022-11-16T07:37:46.946Z,99490
2022-11-16T07:39:47.008Z,99490
2022-11-16T07:41:55.177Z,99490
2022-11-16T07:43:53.034Z,99490
2022-11-16T07:45:45.964Z,99490
2022-11-16T07:47:51.635Z,99490
2022-11-16T07:49:49.608Z,99490
2022-11-16T07:52:01.141Z,99490
2022-11-16T07:53:45.789Z,99490
2022-11-16T07:55:51.570Z,99490
2022-11-16T07:57:50.341Z,99490
2022-11-16T07:59:45.422Z,99490
2022-11-16T08:01:47.141Z,99490
2022-11-16T08:03:46.999Z,99490
2022-11-16T08:05:45.644Z,99490
2022-11-16T08:07:45.265Z,99490
2022-11-16T08:09:47.390Z,99490
2022-11-16T08:11:44.752Z,99490
2022-11-16T08:13:44.993Z,99490
2022-11-16T08:15:45.990Z,99490
2022-11-16T08:17:45.792Z,99490
2022-11-16T08:19:46.694Z,99490
2022-11-16T08:21:45.020Z,99490
2022-11-16T08:23:45.044Z,99490
2022-11-16T08:25:44.327Z,99490
2022-11-16T08:27:44.844Z,99490
2022-11-16T08:29:44.014Z,99490
2022-11-16T08:31:46.876Z,99490
2022-11-16T08:33:45.378Z,99490
2022-11-16T08:35:43.810Z,99490
2022-11-16T08:37:43.922Z,99490
2022-11-16T08:39:43.742Z,99490
2022-11-16T08:41:43.547Z,99490
2022-11-16T08:43:44.316Z,99490
2022-11-16T08:45:47.229Z,99490
2022-11-16T08:47:43.399Z,99490
2022-11-16T08:49:49.249Z,99490
2022-11-16T08:51:43.157Z,99490
2022-11-16T08:53:43.530Z,99490
2022-11-16T08:55:43.696Z,99490
2022-11-16T08:57:44.073Z,99490
2022-11-16T08:59:45.903Z,99490
2022-11-16T09:01:42.963Z,99490
2022-11-16T09:03:43.651Z,99490
2022-11-16T09:05:42.754Z,99490
2022-11-16T09:07:44.310Z,99490
2022-11-16T09:09:42.565Z,99490
2022-11-16T09:11:42.503Z,99490
2022-11-16T09:13:42.941Z,99480
2022-11-16T09:15:42.279Z,99480
2022-11-16T09:17:42.279Z,99480
2022-11-16T09:19:42.471Z,99480
2022-11-16T09:21:42.555Z,99480
2022-11-16T09:23:42.056Z,99480
2022-11-16T09:25:42.213Z,99480
2022-11-16T09:27:41.854Z,99480
2022-11-16T09:29:42.044Z,99480
2022-11-16T09:31:41.752Z,99480
2022-11-16T09:33:41.621Z,99480
2022-11-16T09:35:41.731Z,99480
2022-11-16T09:37:41.560Z,99480
2022-11-16T09:39:41.348Z,99480
2022-11-16T09:41:55.085Z,99480
2022-11-16T09:43:49.140Z,99480
2022-11-16T09:45:51.992Z,99480
2022-11-16T09:47:45.899Z,99480
2022-11-16T09:49:46.646Z,99480
2022-11-16T09:51:44.533Z,99480
2022-11-16T09:53:44.823Z,99480
2022-11-16T09:55:48.313Z,99480
2022-11-16T09:57:40.719Z,99480
2022-11-16T09:59:44.601Z,99470
2022-11-16T10:01:46.205Z,99470
2022-11-16T10:03:45.959Z,99470
2022-11-16T10:05:45.768Z,99470
2022-11-16T10:07:44.099Z,99470
2022-11-16T10:09:41.038Z,99470
2022-11-16T10:11:50.069Z,99470
2022-11-16T10:13:51.629Z,99470
2022-11-16T10:15:56.862Z,99470
2022-11-16T10:17:54.117Z,99470
2022-11-16T10:19:50.201Z,99470
2022-11-16T10:21:50.877Z,99470
2022-11-16T10:23:57.283Z,99470
2022-11-16T10:25:43.156Z,99470
2022-11-16T10:27:51.354Z,99470
2022-11-16T10:29:52.606Z,99470
2022-11-16T10:31:55.289Z,99470
2022-11-16T10:33:41.617Z,99470
2022-11-16T10:35:43.644Z,99470
2022-11-16T10:37:47.132Z,99470
2022-11-16T10:39:39.693Z,99470
2022-11-16T10:41:41.931Z,99470
2022-11-16T10:43:41.520Z,99470
2022-11-16T10:45:43.083Z,99470
2022-11-16T10:47:43.100Z,99470
2022-11-16T10:49:48.223Z,99470
2022-11-16T10:51:38.776Z,99470
2022-11-16T10:53:40.644Z,99470
2022-11-16T10:55:38.759Z,99470
2022-11-16T10:57:54.436Z,99470
2022-11-16T10:59:42.424Z,99460
2022-11-16T11:01:40.586Z,99460
2022-11-16T11:03:38.377Z,99460
2022-11-16T11:05:48.837Z,99460
2022-11-16T11:07:39.602Z,99460
2022-11-16T11:09:42.188Z,99460
2022-11-16T11:11:38.198Z,99460
2022-11-16T11:13:38.233Z,99450
2022-11-16T11:15:39.777Z,99450
2022-11-16T11:17:39.990Z,99450
2022-11-16T11:19:37.945Z,99450
2022-11-16T11:21:37.877Z,99450
2022-11-16T11:23:41.874Z,99450
2022-11-16T11:25:40.941Z,99450
2022-11-16T11:27:37.718Z,99440
2022-11-16T11:29:41.546Z,99430
2022-11-16T11:31:43.015Z,99440
2022-11-16T11:33:41.796Z,99440
2022-11-16T11:35:37.429Z,99440
2022-11-16T11:37:38.578Z,99440
2022-11-16T11:39:37.527Z,99440
2022-11-16T11:41:39.256Z,99440
2022-11-16T11:43:37.243Z,99440
2022-11-16T11:45:44.640Z,99440
2022-11-16T11:47:57.798Z,99440
2022-11-16T11:49:41.795Z,99440
2022-11-16T11:51:40.806Z,99440
2022-11-16T11:53:44.893Z,99440
2022-11-16T11:55:36.694Z,99440
2022-11-16T11:57:41.869Z,99440
2022-11-16T11:59:36.411Z,99440
2022-11-16T12:01:50.586Z,99440
2022-11-16T12:03:52.630Z,99440
2022-11-16T12:06:02.041Z,99440
2022-11-16T12:07:50.898Z,99440
2022-11-16T12:09:43.869Z,99440
2022-11-16T12:11:50.490Z,99430
2022-11-16T12:13:56.217Z,99430
2022-11-16T12:15:46.564Z,99430
2022-11-16T12:17:47.794Z,99430
2022-11-16T12:19:49.762Z,99430
2022-11-16T12:21:49.086Z,99430
2022-11-16T12:23:51.701Z,99430
2022-11-16T12:25:42.303Z,99430
2022-11-16T12:27:46.070Z,99430
2022-11-16T12:29:44.909Z,99430
2022-11-16T12:31:48.107Z,99430
2022-11-16T12:33:43.544Z,99430
2022-11-16T12:35:43.761Z,99430
2022-11-16T12:37:42.685Z,99430
2022-11-16T12:39:42.382Z,99430
2022-11-16T12:41:49.061Z,99430
2022-11-16T12:43:44.058Z,99430
2022-11-16T12:45:47.438Z,99430
2022-11-16T12:47:50.320Z,99430
2022-11-16T12:49:51.500Z,99430
2022-11-16T12:51:49.394Z,99430
2022-11-16T12:53:53.754Z,99430
2022-11-16T12:55:42.918Z,99430
2022-11-16T12:57:44.615Z,99430
2022-11-16T12:59:51.244Z,99430
2022-11-16T13:01:40.487Z,99430
2022-11-16T13:03:40.586Z,99430
2022-11-16T13:05:46.069Z,99430
2022-11-16T13:07:42.648Z,99430
2022-11-16T13:09:37.818Z,99430
2022-11-16T13:11:37.072Z,99430
2022-11-16T13:13:36.933Z,99430
2022-11-16T13:15:35.328Z,99430
2022-11-16T13:17:37.172Z,99430
2022-11-16T13:19:36.175Z,99430
2022-11-16T13:21:44.364Z,99430
2022-11-16T13:23:46.623Z,99430
2022-11-16T13:25:39.823Z,99430
2022-11-16T13:27:38.540Z,99430
2022-11-16T13:29:37.224Z,99430
2022-11-16T13:31:37.106Z,99430
2022-11-16T13:33:46.267Z,99430
2022-11-16T13:35:36.655Z,99430
2022-11-16T13:37:47.379Z,99430
2022-11-16T13:40:02.115Z,99430
2022-11-16T13:41:34.109Z,99430
2022-11-16T13:43:31.537Z,99430
2022-11-16T13:45:33.855Z,99430
2022-11-16T13:47:31.378Z,99430
2022-11-16T13:49:35.244Z,99430
2022-11-16T13:51:31.320Z,99430
2022-11-16T13:55:33.538Z,99430
2022-11-16T13:57:32.803Z,99430
2022-11-16T13:59:34.147Z,99430
2022-11-16T14:01:54.832Z,99430
2022-11-16T14:03:33.692Z,99430
2022-11-16T14:05:37.960Z,99430
2022-11-16T14:07:36.504Z,99430
2022-11-16T14:09:46.636Z,99430
2022-11-16T14:11:33.670Z,99430
2022-11-16T14:13:39.341Z,99440
2022-11-16T14:15:33.598Z,99440
2022-11-16T14:17:48.637Z,99440
2022-11-16T14:19:52.924Z,99440
2022-11-16T14:21:46.898Z,99440
2022-11-16T14:23:45.922Z,99440
2022-11-16T14:25:37.701Z,99440
2022-11-16T14:27:38.014Z,99440
2022-11-16T14:29:46.227Z,99440
2022-11-16T14:31:31.606Z,99440
2022-11-16T14:33:33.186Z,99440
2022-11-16T14:35:33.500Z,99440
2022-11-16T14:37:32.757Z,99440
2022-11-16T14:39:32.874Z,99440
2022-11-16T14:41:29.029Z,99440
2022-11-16T14:43:33.868Z,99440
2022-11-16T14:45:31.482Z,99440
2022-11-16T14:47:31.600Z,99440
2022-11-16T14:49:30.722Z,99440
2022-11-16T14:51:32.268Z,99440
2022-11-16T14:53:29.894Z,99440
2022-11-16T14:55:28.673Z,99440
2022-11-16T14:57:28.253Z,99440
2022-11-16T14:59:29.468Z,99440
2022-11-16T15:01:30.705Z,99440
2022-11-16T15:03:32.804Z,99440
2022-11-16T15:05:32.393Z,99440
2022-11-16T15:07:29.145Z,99440
2022-11-16T15:09:30.635Z,99440
2022-11-16T15:11:30.727Z,99440
2022-11-16T15:13:27.828Z,99440
2022-11-16T15:15:29.699Z,99440
2022-11-16T15:17:33.086Z,99440
2022-11-16T15:19:29.442Z,99440
2022-11-16T15:21:28.163Z,99440
2022-11-16T15:23:30.606Z,99440
2022-11-16T15:25:29.303Z,99440
2022-11-16T15:27:34.812Z,99440
2022-11-16T15:29:26.942Z,99440
2022-11-16T15:31:26.733Z,99440
2022-11-16T15:33:29.960Z,99440
2022-11-16T15:35:29.973Z,99440
2022-11-16T15:37:27.886Z,99440
2022-11-16T15:39:32.170Z,99440
2022-11-16T15:41:27.422Z,99440
2022-11-16T15:43:30.263Z,99440
2022-11-16T15:45:27.789Z,99440
2022-11-16T15:47:26.551Z,99440
2022-11-16T15:49:29.559Z,99440
2022-11-16T15:51:26.096Z,99440
2022-11-16T15:53:35.759Z,99430
2022-11-16T15:55:30.565Z,99430
2022-11-16T15:57:25.524Z,99430
2022-11-16T15:59:29.304Z,99430
2022-11-16T16:01:25.584Z,99420
2022-11-16T16:03:27.855Z,99420
2022-11-16T16:05:33.899Z,99420
2022-11-16T16:07:40.637Z,99410
2022-11-16T16:09:27.701Z,99410
2022-11-16T16:11:27.260Z,99410
2022-11-16T16:13:28.559Z,99410
2022-11-16T16:15:27.435Z,99410
2022-11-16T16:17:26.608Z,99410
2022-11-16T16:19:32.372Z,99410
2022-11-16T16:21:27.144Z,99410
2022-11-16T16:23:24.871Z,99410
2022-11-16T16:25:27.762Z,99410
2022-11-16T16:27:25.659Z,99410
2022-11-16T16:29:26.164Z,99410
2022-11-16T16:31:23.815Z,99410
2022-11-16T16:33:24.067Z,99410
2022-11-16T16:35:25.267Z,99410
2022-11-16T16:37:27.401Z,99410
2022-11-16T16:39:23.835Z,99410
2022-11-16T16:41:24.733Z,99410
2022-11-16T16:43:23.207Z,99410
2022-11-16T16:45:33.260Z,99410
2022-11-16T16:47:23.412Z,99410
2022-11-16T16:49:23.225Z,99410
2022-11-16T16:51:23.025Z,99400
2022-11-16T16:53:22.767Z,99400
2022-11-16T16:55:22.979Z,99400
2022-11-16T16:57:22.541Z,99400
2022-11-16T16:59:23.169Z,99390
2022-11-16T17:01:22.856Z,99390
2022-11-16T17:03:22.262Z,99390
2022-11-16T17:05:22.615Z,99390
2022-11-16T17:07:22.593Z,99390
2022-11-16T17:09:22.530Z,99390
2022-11-16T17:11:22.092Z,99390
2022-11-16T17:13:21.772Z,99390
2022-11-16T17:15:22.716Z,99380
2022-11-16T17:17:22.538Z,99380
2022-11-16T17:19:21.846Z,99380
2022-11-16T17:21:21.709Z,99380
2022-11-16T17:23:21.242Z,99380
2022-11-16T17:25:21.139Z,99370
2022-11-16T17:27:21.551Z,99360
2022-11-16T17:29:20.943Z,99360
2022-11-16T17:31:22.334Z,99360
2022-11-16T17:33:20.714Z,99360
2022-11-16T17:35:20.663Z,99360
2022-11-16T17:37:20.988Z,99360
2022-11-16T17:39:21.173Z,99360
2022-11-16T17:41:20.914Z,99360
2022-11-16T17:43:20.623Z,99360
2022-11-16T17:45:20.878Z,99360
2022-11-16T17:47:21.136Z,99360
2022-11-16T17:49:20.260Z,99360
2022-11-16T17:51:22.313Z,99360
2022-11-16T17:53:19.751Z,99360
2022-11-16T17:55:19.608Z,99360
2022-11-16T17:57:19.480Z,99360
2022-11-16T17:59:19.415Z,99360
2022-11-16T18:01:19.780Z,99360
2022-11-16T18:03:19.237Z,99360
2022-11-16T18:05:19.255Z,99360
2022-11-16T18:07:19.179Z,99360
2022-11-16T18:09:19.067Z,99360
2022-11-16T18:11:20.809Z,99360
2022-11-16T18:13:19.122Z,99360
2022-11-16T18:15:28.551Z,99360
2022-11-16T18:17:18.937Z,99360
2022-11-16T18:19:19.058Z,99360
2022-11-16T18:21:20.574Z,99360
2022-11-16T18:23:19.569Z,99360
2022-11-16T18:25:18.584Z,99360
2022-11-16T18:27:18.543Z,99360
2022-11-16T18:29:18.266Z,99360
2022-11-16T18:31:19.834Z,99350
2022-11-16T18:33:17.740Z,99340
2022-11-16T18:35:17.649Z,99330
2022-11-16T18:37:17.505Z,99330
2022-11-16T18:39:17.975Z,99330
2022-11-16T18:41:19.243Z,99330
2022-11-16T18:43:17.482Z,99330
2022-11-16T18:45:17.263Z,99330
2022-11-16T18:47:17.235Z,99330
2022-11-16T18:49:17.194Z,99330
2022-11-16T18:51:18.532Z,99330
2022-11-16T18:53:17.003Z,99330
2022-11-16T18:55:16.776Z,99330
2022-11-16T18:57:16.589Z,99330
2022-11-16T18:59:16.757Z,99330
2022-11-16T19:01:18.269Z,99340
2022-11-16T19:03:16.474Z,99340
2022-11-16T19:05:16.172Z,99340
2022-11-16T19:07:16.587Z,99330
2022-11-16T19:09:15.964Z,99320
2022-11-16T19:11:16.475Z,99320
2022-11-16T19:13:15.841Z,99320
2022-11-16T19:15:15.898Z,99320
2022-11-16T19:17:15.663Z,99310
2022-11-16T19:19:15.547Z,99310
2022-11-16T19:21:16.242Z,99310
2022-11-16T19:23:15.485Z,99310
2022-11-16T19:25:15.157Z,99310
2022-11-16T19:27:14.950Z,99310
2022-11-16T19:29:14.894Z,99310
2022-11-16T19:31:16.903Z,99310
2022-11-16T19:33:14.629Z,99310
2022-11-16T19:35:14.626Z,99310
2022-11-16T19:37:14.524Z,99310
2022-11-16T19:39:14.404Z,99310
2022-11-16T19:41:16.206Z,99310
2022-11-16T19:43:14.128Z,99310
2022-11-16T19:45:14.067Z,99310
2022-11-16T19:47:13.868Z,99310
2022-11-16T19:49:19.576Z,99310
2022-11-16T19:51:16.027Z,99300
2022-11-16T19:53:13.515Z,99300
2022-11-16T19:55:13.548Z,99300
2022-11-16T19:57:13.298Z,99300
2022-11-16T19:59:13.218Z,99300
2022-11-16T20:01:15.150Z,99300
2022-11-16T20:03:12.985Z,99300
2022-11-16T20:05:12.841Z,99300
2022-11-16T20:07:12.756Z,99300
2022-11-16T20:09:12.569Z,99300
2022-11-16T20:11:15.066Z,99300
2022-11-16T20:13:12.478Z,99300
2022-11-16T20:15:12.259Z,99290
2022-11-16T20:17:12.119Z,99290
2022-11-16T20:19:12.298Z,99290
2022-11-16T20:21:17.863Z,99280
2022-11-16T20:23:14.394Z,99280
2022-11-16T20:25:11.695Z,99280
2022-11-16T20:27:11.707Z,99280
2022-11-16T20:29:12.006Z,99280
2022-11-16T20:31:12.960Z,99290
2022-11-16T20:33:11.360Z,99290
2022-11-16T20:35:13.759Z,99290
2022-11-16T20:37:11.025Z,99290
2022-11-16T20:39:12.820Z,99290
2022-11-16T20:41:12.852Z,99290
2022-11-16T20:43:10.635Z,99280
2022-11-16T20:45:10.992Z,99280
2022-11-16T20:47:10.463Z,99280
2022-11-16T20:49:10.545Z,99280
2022-11-16T20:51:12.086Z,99280
2022-11-16T20:53:10.229Z,99280
2022-11-16T20:55:10.218Z,99280
2022-11-16T20:57:09.917Z,99280
2022-11-16T20:59:09.867Z,99280
2022-11-16T21:01:13.717Z,99280
2022-11-16T21:03:09.845Z,99280
2022-11-16T21:05:09.512Z,99280
2022-11-16T21:07:09.435Z,99280
2022-11-16T21:09:11.181Z,99280
2022-11-16T21:11:10.044Z,99280
2022-11-16T21:13:13.550Z,99270
2022-11-16T21:15:09.505Z,99260
2022-11-16T21:17:08.862Z,99260
2022-11-16T21:19:09.421Z,99260
2022-11-16T21:21:10.683Z,99260
2022-11-16T21:23:08.597Z,99260
2022-11-16T21:25:09.277Z,99260
2022-11-16T21:27:08.375Z,99260
2022-11-16T21:29:08.232Z,99260
2022-11-16T21:31:10.866Z,99260
2022-11-16T21:33:08.387Z,99260
2022-11-16T21:35:08.485Z,99260
2022-11-16T21:37:08.011Z,99260
2022-11-16T21:39:07.750Z,99260
2022-11-16T21:41:10.048Z,99260
2022-11-16T21:43:07.473Z,99260
2022-11-16T21:45:08.805Z,99250
2022-11-16T21:47:07.586Z,99250
2022-11-16T21:49:07.180Z,99250
2022-11-16T21:51:09.345Z,99250
2022-11-16T21:53:08.201Z,99250
2022-11-16T21:55:07.525Z,99250
2022-11-16T21:57:06.819Z,99250
2022-11-16T21:59:06.701Z,99250
2022-11-16T22:01:08.181Z,99240
2022-11-16T22:03:06.527Z,99240
2022-11-16T22:05:07.883Z,99240
2022-11-16T22:07:12.890Z,99240
2022-11-16T22:09:06.212Z,99240
2022-11-16T22:11:07.075Z,99240
2022-11-16T22:13:06.194Z,99240
2022-11-16T22:15:07.300Z,99230
2022-11-16T22:17:05.780Z,99230
2022-11-16T22:19:05.692Z,99230
2022-11-16T22:21:06.081Z,99230
2022-11-16T22:23:05.484Z,99220
2022-11-16T22:25:06.392Z,99220
2022-11-16T22:27:05.375Z,99220
2022-11-16T22:29:05.235Z,99220
2022-11-16T22:31:06.700Z,99220
2022-11-16T22:33:05.048Z,99220
2022-11-16T22:35:05.408Z,99220
2022-11-16T22:37:05.631Z,99220
2022-11-16T22:39:04.873Z,99210
2022-11-16T22:41:04.971Z,99220
2022-11-16T22:43:04.620Z,99220
2022-11-16T22:45:05.233Z,99220
2022-11-16T22:47:04.556Z,99220
2022-11-16T22:49:04.418Z,99220
2022-11-16T22:51:06.295Z,99220
2022-11-16T22:53:04.529Z,99220
2022-11-16T22:55:04.916Z,99220
2022-11-16T22:57:04.534Z,99220
2022-11-16T22:59:04.183Z,99220
2022-11-16T23:01:05.023Z,99210
2022-11-16T23:03:03.877Z,99210
2022-11-16T23:05:04.286Z,99210
2022-11-16T23:07:03.669Z,99210
2022-11-16T23:09:03.577Z,99210
2022-11-16T23:11:06.283Z,99210
2022-11-16T23:13:03.315Z,99210
2022-11-16T23:15:03.753Z,99210
2022-11-16T23:17:03.738Z,99210
2022-11-16T23:19:03.763Z,99210
2022-11-16T23:21:03.118Z,99200
2022-11-16T23:23:03.088Z,99200
2022-11-16T23:25:04.363Z,99190
2022-11-16T23:27:03.868Z,99190
2022-11-16T23:29:04.634Z,99190
2022-11-16T23:31:02.511Z,99190
2022-11-16T23:33:02.584Z,99190
2022-11-16T23:35:02.577Z,99190
2022-11-16T23:37:03.119Z,99190
2022-11-16T23:39:02.072Z,99190
2022-11-16T23:41:02.013Z,99190
2022-11-16T23:43:02.614Z,99190
2022-11-16T23:45:02.041Z,99190
2022-11-16T23:47:01.883Z,99190
2022-11-16T23:49:01.623Z,99180
2022-11-16T23:51:01.511Z,99180
2022-11-16T23:53:01.608Z,99180
2022-11-16T23:55:01.304Z,99180
2022-11-16T23:57:01.236Z,99180
2022-11-16T23:59:01.207Z,99180
